sensor_id;sensor_type;location;lat;lon;timestamp;P1;durP1;ratioP1;P2;durP2;ratioP2
773;SDS011;370;48.810;9.150;2023-08-01T00:03:20;2.70;;;1.77;;
773;SDS011;370;48.810;9.150;2023-08-01T00:19:47;3.77;;;1.90;;
773;SDS011;370;48.810;9.150;2023-08-01T00:22:14;3.60;;;1.93;;
773;SDS011;370;48.810;9.150;2023-08-01T00:24:41;7.60;;;2.10;;
773;SDS011;370;48.810;9.150;2023-08-01T00:27:08;4.63;;;1.80;;
773;SDS011;370;48.810;9.150;2023-08-01T00:29:35;2.77;;;1.90;;
773;SDS011;370;48.810;9.150;2023-08-01T00:32:02;3.27;;;1.77;;
773;SDS011;370;48.810;9.150;2023-08-01T00:34:29;3.10;;;2.27;;
773;SDS011;370;48.810;9.150;2023-08-01T00:36:58;2.80;;;1.90;;
773;SDS011;370;48.810;9.150;2023-08-01T00:39:24;6.17;;;2.50;;
773;SDS011;370;48.810;9.150;2023-08-01T00:41:51;3.43;;;2.13;;
773;SDS011;370;48.810;9.150;2023-08-01T00:44:18;4.00;;;1.70;;
773;SDS011;370;48.810;9.150;2023-08-01T00:46:45;15.00;;;2.63;;
773;SDS011;370;48.810;9.150;2023-08-01T00:49:12;4.57;;;2.30;;
773;SDS011;370;48.810;9.150;2023-08-01T00:51:39;3.93;;;1.83;;
773;SDS011;370;48.810;9.150;2023-08-01T00:54:08;3.73;;;2.17;;
773;SDS011;370;48.810;9.150;2023-08-01T00:56:35;3.57;;;1.83;;
773;SDS011;370;48.810;9.150;2023-08-01T00:59:02;4.40;;;2.30;;
773;SDS011;370;48.810;9.150;2023-08-01T01:01:28;5.90;;;2.70;;
773;SDS011;370;48.810;9.150;2023-08-01T01:03:55;4.50;;;2.00;;
773;SDS011;370;48.810;9.150;2023-08-01T01:06:23;3.37;;;2.00;;
773;SDS011;370;48.810;9.150;2023-08-01T01:08:54;5.60;;;2.47;;
773;SDS011;370;48.810;9.150;2023-08-01T01:11:22;6.20;;;2.20;;
773;SDS011;370;48.810;9.150;2023-08-01T01:13:49;5.07;;;2.60;;
773;SDS011;370;48.810;9.150;2023-08-01T01:16:18;3.97;;;2.00;;
773;SDS011;370;48.810;9.150;2023-08-01T01:18:45;3.97;;;1.63;;
773;SDS011;370;48.810;9.150;2023-08-01T01:21:13;5.30;;;1.77;;
773;SDS011;370;48.810;9.150;2023-08-01T01:23:39;5.17;;;2.27;;
773;SDS011;370;48.810;9.150;2023-08-01T01:26:07;5.77;;;2.20;;
773;SDS011;370;48.810;9.150;2023-08-01T01:28:35;3.67;;;2.33;;
773;SDS011;370;48.810;9.150;2023-08-01T01:31:03;4.50;;;1.83;;
773;SDS011;370;48.810;9.150;2023-08-01T01:33:30;8.73;;;2.70;;
773;SDS011;370;48.810;9.150;2023-08-01T01:35:59;3.30;;;1.70;;
773;SDS011;370;48.810;9.150;2023-08-01T01:38:28;7.87;;;2.10;;
773;SDS011;370;48.810;9.150;2023-08-01T01:40:54;4.60;;;2.30;;
773;SDS011;370;48.810;9.150;2023-08-01T01:43:21;4.50;;;1.90;;
773;SDS011;370;48.810;9.150;2023-08-01T01:45:48;5.53;;;1.70;;
773;SDS011;370;48.810;9.150;2023-08-01T01:48:15;10.27;;;2.53;;
773;SDS011;370;48.810;9.150;2023-08-01T01:50:41;3.60;;;2.17;;
773;SDS011;370;48.810;9.150;2023-08-01T01:53:08;6.13;;;2.50;;
773;SDS011;370;48.810;9.150;2023-08-01T01:55:36;4.63;;;2.30;;
773;SDS011;370;48.810;9.150;2023-08-01T01:58:03;6.00;;;2.10;;
773;SDS011;370;48.810;9.150;2023-08-01T02:00:31;5.93;;;2.10;;
773;SDS011;370;48.810;9.150;2023-08-01T02:02:58;3.90;;;2.00;;
773;SDS011;370;48.810;9.150;2023-08-01T02:05:25;8.63;;;2.60;;
773;SDS011;370;48.810;9.150;2023-08-01T02:07:52;5.43;;;2.20;;
773;SDS011;370;48.810;9.150;2023-08-01T02:10:18;6.07;;;2.53;;
773;SDS011;370;48.810;9.150;2023-08-01T02:12:46;3.63;;;1.80;;
773;SDS011;370;48.810;9.150;2023-08-01T02:15:13;6.03;;;2.97;;
773;SDS011;370;48.810;9.150;2023-08-01T02:17:40;6.20;;;3.20;;
773;SDS011;370;48.810;9.150;2023-08-01T02:20:07;5.20;;;2.53;;
773;SDS011;370;48.810;9.150;2023-08-01T02:22:34;2.60;;;1.57;;
773;SDS011;370;48.810;9.150;2023-08-01T02:25:01;3.07;;;2.13;;
773;SDS011;370;48.810;9.150;2023-08-01T02:27:27;5.90;;;2.70;;
773;SDS011;370;48.810;9.150;2023-08-01T02:29:56;3.43;;;1.93;;
773;SDS011;370;48.810;9.150;2023-08-01T02:32:22;3.70;;;2.23;;
773;SDS011;370;48.810;9.150;2023-08-01T02:34:49;4.00;;;2.27;;
773;SDS011;370;48.810;9.150;2023-08-01T02:37:16;4.47;;;1.70;;
773;SDS011;370;48.810;9.150;2023-08-01T02:39:42;4.33;;;2.20;;
773;SDS011;370;48.810;9.150;2023-08-01T02:42:09;3.47;;;2.13;;
773;SDS011;370;48.810;9.150;2023-08-01T02:44:36;4.47;;;2.23;;
773;SDS011;370;48.810;9.150;2023-08-01T02:47:04;10.17;;;2.43;;
773;SDS011;370;48.810;9.150;2023-08-01T02:49:31;4.73;;;2.27;;
773;SDS011;370;48.810;9.150;2023-08-01T02:51:58;5.73;;;2.20;;
773;SDS011;370;48.810;9.150;2023-08-01T02:54:24;6.33;;;2.90;;
773;SDS011;370;48.810;9.150;2023-08-01T02:56:51;4.60;;;2.20;;
773;SDS011;370;48.810;9.150;2023-08-01T02:59:18;4.87;;;2.60;;
773;SDS011;370;48.810;9.150;2023-08-01T03:01:44;7.10;;;2.40;;
773;SDS011;370;48.810;9.150;2023-08-01T03:04:12;4.13;;;2.60;;
773;SDS011;370;48.810;9.150;2023-08-01T03:06:40;5.63;;;2.73;;
773;SDS011;370;48.810;9.150;2023-08-01T03:09:06;4.10;;;2.00;;
773;SDS011;370;48.810;9.150;2023-08-01T03:11:35;4.80;;;2.30;;
773;SDS011;370;48.810;9.150;2023-08-01T03:14:02;8.20;;;2.33;;
773;SDS011;370;48.810;9.150;2023-08-01T03:16:30;2.90;;;2.03;;
773;SDS011;370;48.810;9.150;2023-08-01T03:18:57;3.93;;;2.30;;
773;SDS011;370;48.810;9.150;2023-08-01T03:21:30;5.77;;;2.53;;
773;SDS011;370;48.810;9.150;2023-08-01T03:23:57;8.13;;;2.53;;
773;SDS011;370;48.810;9.150;2023-08-01T03:26:24;4.40;;;1.80;;
773;SDS011;370;48.810;9.150;2023-08-01T03:28:53;5.43;;;2.70;;
773;SDS011;370;48.810;9.150;2023-08-01T03:31:20;3.10;;;1.97;;
773;SDS011;370;48.810;9.150;2023-08-01T03:33:47;6.70;;;2.93;;
773;SDS011;370;48.810;9.150;2023-08-01T03:36:14;4.10;;;2.60;;
773;SDS011;370;48.810;9.150;2023-08-01T03:38:42;5.20;;;2.40;;
773;SDS011;370;48.810;9.150;2023-08-01T03:41:09;3.77;;;2.30;;
773;SDS011;370;48.810;9.150;2023-08-01T03:43:36;6.60;;;2.17;;
773;SDS011;370;48.810;9.150;2023-08-01T03:46:02;2.93;;;1.73;;
773;SDS011;370;48.810;9.150;2023-08-01T03:48:30;2.83;;;1.93;;
773;SDS011;370;48.810;9.150;2023-08-01T03:50:56;4.10;;;2.17;;
773;SDS011;370;48.810;9.150;2023-08-01T03:53:23;4.43;;;2.47;;
773;SDS011;370;48.810;9.150;2023-08-01T03:55:51;2.23;;;1.67;;
773;SDS011;370;48.810;9.150;2023-08-01T03:58:18;10.70;;;2.47;;
773;SDS011;370;48.810;9.150;2023-08-01T04:00:45;3.83;;;1.80;;
773;SDS011;370;48.810;9.150;2023-08-01T04:03:11;4.03;;;2.00;;
773;SDS011;370;48.810;9.150;2023-08-01T04:05:38;4.80;;;2.40;;
773;SDS011;370;48.810;9.150;2023-08-01T04:08:05;2.90;;;2.10;;
773;SDS011;370;48.810;9.150;2023-08-01T04:10:33;5.33;;;2.30;;
773;SDS011;370;48.810;9.150;2023-08-01T04:13:01;2.73;;;1.57;;
773;SDS011;370;48.810;9.150;2023-08-01T04:15:27;5.90;;;2.30;;
773;SDS011;370;48.810;9.150;2023-08-01T04:17:55;5.00;;;2.23;;
773;SDS011;370;48.810;9.150;2023-08-01T04:20:21;3.50;;;2.07;;
773;SDS011;370;48.810;9.150;2023-08-01T04:22:48;2.77;;;1.80;;
773;SDS011;370;48.810;9.150;2023-08-01T04:25:15;3.30;;;1.80;;
773;SDS011;370;48.810;9.150;2023-08-01T04:27:42;3.33;;;1.63;;
773;SDS011;370;48.810;9.150;2023-08-01T04:30:10;3.50;;;1.97;;
773;SDS011;370;48.810;9.150;2023-08-01T04:32:37;4.10;;;2.10;;
773;SDS011;370;48.810;9.150;2023-08-01T04:35:04;4.17;;;2.30;;
773;SDS011;370;48.810;9.150;2023-08-01T04:37:32;4.27;;;2.67;;
773;SDS011;370;48.810;9.150;2023-08-01T04:39:58;5.80;;;1.93;;
773;SDS011;370;48.810;9.150;2023-08-01T04:42:25;5.43;;;2.27;;
773;SDS011;370;48.810;9.150;2023-08-01T04:44:52;4.33;;;2.27;;
773;SDS011;370;48.810;9.150;2023-08-01T04:47:20;11.63;;;2.13;;
773;SDS011;370;48.810;9.150;2023-08-01T04:49:47;3.30;;;1.77;;
773;SDS011;370;48.810;9.150;2023-08-01T04:52:13;2.70;;;1.50;;
773;SDS011;370;48.810;9.150;2023-08-01T04:54:40;5.30;;;1.90;;
773;SDS011;370;48.810;9.150;2023-08-01T04:57:07;3.00;;;1.73;;
773;SDS011;370;48.810;9.150;2023-08-01T04:59:34;3.10;;;1.53;;
773;SDS011;370;48.810;9.150;2023-08-01T05:02:00;2.27;;;1.47;;
773;SDS011;370;48.810;9.150;2023-08-01T05:04:28;2.90;;;1.80;;
773;SDS011;370;48.810;9.150;2023-08-01T05:06:56;2.97;;;1.60;;
773;SDS011;370;48.810;9.150;2023-08-01T05:09:22;1.83;;;1.33;;
773;SDS011;370;48.810;9.150;2023-08-01T05:11:49;4.50;;;1.50;;
773;SDS011;370;48.810;9.150;2023-08-01T05:14:16;1.97;;;1.40;;
773;SDS011;370;48.810;9.150;2023-08-01T05:16:43;3.73;;;1.60;;
773;SDS011;370;48.810;9.150;2023-08-01T05:19:10;2.00;;;1.60;;
773;SDS011;370;48.810;9.150;2023-08-01T05:21:38;5.17;;;1.97;;
773;SDS011;370;48.810;9.150;2023-08-01T05:24:05;3.03;;;1.37;;
773;SDS011;370;48.810;9.150;2023-08-01T05:26:31;2.67;;;1.57;;
773;SDS011;370;48.810;9.150;2023-08-01T05:28:58;2.00;;;1.30;;
773;SDS011;370;48.810;9.150;2023-08-01T05:31:25;4.23;;;1.70;;
773;SDS011;370;48.810;9.150;2023-08-01T05:33:51;6.50;;;2.27;;
773;SDS011;370;48.810;9.150;2023-08-01T05:36:18;3.87;;;2.13;;
773;SDS011;370;48.810;9.150;2023-08-01T05:38:46;2.53;;;1.43;;
773;SDS011;370;48.810;9.150;2023-08-01T05:41:13;2.10;;;1.40;;
773;SDS011;370;48.810;9.150;2023-08-01T05:43:40;3.63;;;1.83;;
773;SDS011;370;48.810;9.150;2023-08-01T05:46:07;4.30;;;1.50;;
773;SDS011;370;48.810;9.150;2023-08-01T05:48:33;5.50;;;1.93;;
773;SDS011;370;48.810;9.150;2023-08-01T05:51:00;3.97;;;1.80;;
773;SDS011;370;48.810;9.150;2023-08-01T05:53:27;2.50;;;1.77;;
773;SDS011;370;48.810;9.150;2023-08-01T05:55:56;11.73;;;2.47;;
773;SDS011;370;48.810;9.150;2023-08-01T05:58:23;3.80;;;2.40;;
773;SDS011;370;48.810;9.150;2023-08-01T06:00:50;3.67;;;1.93;;
773;SDS011;370;48.810;9.150;2023-08-01T06:03:17;6.00;;;2.20;;
773;SDS011;370;48.810;9.150;2023-08-01T06:05:44;7.23;;;1.77;;
773;SDS011;370;48.810;9.150;2023-08-01T06:08:11;3.80;;;2.17;;
773;SDS011;370;48.810;9.150;2023-08-01T06:10:38;2.03;;;1.60;;
773;SDS011;370;48.810;9.150;2023-08-01T06:13:06;6.13;;;2.13;;
773;SDS011;370;48.810;9.150;2023-08-01T06:15:34;4.07;;;1.80;;
773;SDS011;370;48.810;9.150;2023-08-01T06:18:00;4.47;;;2.37;;
773;SDS011;370;48.810;9.150;2023-08-01T06:20:28;3.30;;;1.93;;
773;SDS011;370;48.810;9.150;2023-08-01T06:22:55;3.10;;;1.70;;
773;SDS011;370;48.810;9.150;2023-08-01T06:25:21;5.53;;;2.13;;
773;SDS011;370;48.810;9.150;2023-08-01T06:27:48;9.43;;;2.30;;
773;SDS011;370;48.810;9.150;2023-08-01T06:30:16;4.27;;;1.53;;
773;SDS011;370;48.810;9.150;2023-08-01T06:32:43;2.67;;;1.80;;
773;SDS011;370;48.810;9.150;2023-08-01T06:35:10;6.53;;;2.30;;
773;SDS011;370;48.810;9.150;2023-08-01T06:37:37;4.83;;;2.10;;
773;SDS011;370;48.810;9.150;2023-08-01T06:40:04;4.17;;;2.03;;
773;SDS011;370;48.810;9.150;2023-08-01T06:42:32;6.90;;;2.20;;
773;SDS011;370;48.810;9.150;2023-08-01T06:44:59;4.43;;;2.37;;
773;SDS011;370;48.810;9.150;2023-08-01T06:47:28;2.83;;;2.03;;
773;SDS011;370;48.810;9.150;2023-08-01T06:49:56;7.63;;;2.17;;
773;SDS011;370;48.810;9.150;2023-08-01T06:52:24;3.77;;;2.23;;
773;SDS011;370;48.810;9.150;2023-08-01T06:54:53;5.40;;;2.73;;
773;SDS011;370;48.810;9.150;2023-08-01T06:57:20;4.63;;;2.00;;
773;SDS011;370;48.810;9.150;2023-08-01T06:59:49;5.60;;;2.23;;
773;SDS011;370;48.810;9.150;2023-08-01T07:02:16;4.97;;;2.20;;
773;SDS011;370;48.810;9.150;2023-08-01T07:04:44;6.53;;;2.73;;
773;SDS011;370;48.810;9.150;2023-08-01T07:07:11;7.13;;;2.93;;
773;SDS011;370;48.810;9.150;2023-08-01T07:09:37;12.20;;;3.30;;
773;SDS011;370;48.810;9.150;2023-08-01T07:12:05;9.63;;;3.00;;
773;SDS011;370;48.810;9.150;2023-08-01T07:14:32;5.73;;;2.73;;
773;SDS011;370;48.810;9.150;2023-08-01T07:16:59;9.43;;;3.60;;
773;SDS011;370;48.810;9.150;2023-08-01T07:19:25;6.23;;;2.90;;
773;SDS011;370;48.810;9.150;2023-08-01T07:21:54;12.47;;;3.13;;
773;SDS011;370;48.810;9.150;2023-08-01T07:24:20;5.97;;;2.77;;
773;SDS011;370;48.810;9.150;2023-08-01T07:26:47;13.73;;;3.50;;
773;SDS011;370;48.810;9.150;2023-08-01T07:29:14;7.10;;;2.50;;
773;SDS011;370;48.810;9.150;2023-08-01T07:31:41;10.90;;;3.60;;
773;SDS011;370;48.810;9.150;2023-08-01T07:34:08;7.50;;;2.77;;
773;SDS011;370;48.810;9.150;2023-08-01T07:36:35;14.20;;;3.27;;
773;SDS011;370;48.810;9.150;2023-08-01T07:39:03;11.27;;;3.17;;
773;SDS011;370;48.810;9.150;2023-08-01T07:41:30;4.70;;;2.80;;
773;SDS011;370;48.810;9.150;2023-08-01T07:43:58;5.47;;;2.73;;
773;SDS011;370;48.810;9.150;2023-08-01T07:46:26;13.67;;;3.13;;
773;SDS011;370;48.810;9.150;2023-08-01T07:48:53;8.00;;;3.17;;
773;SDS011;370;48.810;9.150;2023-08-01T07:51:20;7.93;;;3.30;;
773;SDS011;370;48.810;9.150;2023-08-01T07:53:47;8.07;;;3.03;;
773;SDS011;370;48.810;9.150;2023-08-01T07:56:15;10.90;;;2.40;;
773;SDS011;370;48.810;9.150;2023-08-01T07:58:41;2.80;;;1.97;;
773;SDS011;370;48.810;9.150;2023-08-01T08:01:08;4.27;;;1.90;;
773;SDS011;370;48.810;9.150;2023-08-01T08:03:35;4.73;;;2.50;;
773;SDS011;370;48.810;9.150;2023-08-01T08:06:01;3.53;;;2.10;;
773;SDS011;370;48.810;9.150;2023-08-01T08:08:29;5.63;;;2.17;;
773;SDS011;370;48.810;9.150;2023-08-01T08:10:57;4.70;;;1.90;;
773;SDS011;370;48.810;9.150;2023-08-01T08:13:25;3.37;;;1.70;;
773;SDS011;370;48.810;9.150;2023-08-01T08:15:52;4.50;;;2.03;;
773;SDS011;370;48.810;9.150;2023-08-01T08:18:21;5.73;;;1.80;;
773;SDS011;370;48.810;9.150;2023-08-01T08:20:47;6.70;;;1.70;;
773;SDS011;370;48.810;9.150;2023-08-01T08:23:14;2.20;;;1.83;;
773;SDS011;370;48.810;9.150;2023-08-01T08:25:41;4.13;;;2.07;;
773;SDS011;370;48.810;9.150;2023-08-01T08:28:09;3.03;;;1.83;;
773;SDS011;370;48.810;9.150;2023-08-01T08:30:38;3.80;;;2.17;;
773;SDS011;370;48.810;9.150;2023-08-01T08:33:05;3.20;;;1.87;;
773;SDS011;370;48.810;9.150;2023-08-01T08:35:32;10.47;;;1.80;;
773;SDS011;370;48.810;9.150;2023-08-01T08:38:01;3.97;;;1.90;;
773;SDS011;370;48.810;9.150;2023-08-01T08:40:29;2.37;;;1.80;;
773;SDS011;370;48.810;9.150;2023-08-01T08:42:56;5.90;;;2.27;;
773;SDS011;370;48.810;9.150;2023-08-01T08:45:27;3.87;;;1.53;;
773;SDS011;370;48.810;9.150;2023-08-01T08:47:57;5.40;;;2.20;;
773;SDS011;370;48.810;9.150;2023-08-01T08:50:27;2.63;;;1.70;;
773;SDS011;370;48.810;9.150;2023-08-01T08:52:56;5.07;;;1.77;;
773;SDS011;370;48.810;9.150;2023-08-01T08:55:23;1.70;;;1.50;;
773;SDS011;370;48.810;9.150;2023-08-01T08:57:52;3.33;;;1.57;;
773;SDS011;370;48.810;9.150;2023-08-01T09:00:19;6.37;;;1.70;;
773;SDS011;370;48.810;9.150;2023-08-01T09:02:46;3.60;;;1.67;;
773;SDS011;370;48.810;9.150;2023-08-01T09:05:14;2.70;;;1.97;;
773;SDS011;370;48.810;9.150;2023-08-01T09:07:42;6.80;;;1.70;;
773;SDS011;370;48.810;9.150;2023-08-01T09:10:11;3.10;;;1.63;;
773;SDS011;370;48.810;9.150;2023-08-01T09:12:38;3.67;;;1.60;;
773;SDS011;370;48.810;9.150;2023-08-01T09:15:05;4.30;;;1.70;;
773;SDS011;370;48.810;9.150;2023-08-01T09:17:32;3.73;;;1.80;;
773;SDS011;370;48.810;9.150;2023-08-01T09:20:03;2.13;;;1.60;;
773;SDS011;370;48.810;9.150;2023-08-01T09:22:41;1.73;;;1.43;;
773;SDS011;370;48.810;9.150;2023-08-01T09:25:09;1.90;;;1.60;;
773;SDS011;370;48.810;9.150;2023-08-01T09:27:36;1.10;;;1.07;;
773;SDS011;370;48.810;9.150;2023-08-01T09:30:07;4.90;;;1.20;;
773;SDS011;370;48.810;9.150;2023-08-01T09:32:36;1.43;;;1.43;;
773;SDS011;370;48.810;9.150;2023-08-01T09:35:03;2.67;;;1.80;;
773;SDS011;370;48.810;9.150;2023-08-01T09:37:38;1.37;;;1.30;;
773;SDS011;370;48.810;9.150;2023-08-01T09:40:08;0.97;;;0.90;;
773;SDS011;370;48.810;9.150;2023-08-01T09:42:38;4.37;;;1.47;;
773;SDS011;370;48.810;9.150;2023-08-01T09:45:07;3.47;;;1.30;;
773;SDS011;370;48.810;9.150;2023-08-01T09:47:39;2.00;;;1.33;;
773;SDS011;370;48.810;9.150;2023-08-01T09:50:06;1.87;;;1.20;;
773;SDS011;370;48.810;9.150;2023-08-01T09:52:34;2.50;;;1.13;;
773;SDS011;370;48.810;9.150;2023-08-01T09:55:01;1.07;;;0.90;;
773;SDS011;370;48.810;9.150;2023-08-01T09:57:30;1.10;;;1.00;;
773;SDS011;370;48.810;9.150;2023-08-01T09:59:58;1.83;;;0.93;;
773;SDS011;370;48.810;9.150;2023-08-01T10:02:26;1.03;;;0.80;;
773;SDS011;370;48.810;9.150;2023-08-01T10:04:54;0.80;;;0.70;;
773;SDS011;370;48.810;9.150;2023-08-01T10:07:25;0.80;;;0.70;;
773;SDS011;370;48.810;9.150;2023-08-01T10:09:54;0.90;;;0.80;;
773;SDS011;370;48.810;9.150;2023-08-01T10:12:21;1.60;;;0.70;;
773;SDS011;370;48.810;9.150;2023-08-01T10:14:50;1.10;;;0.90;;
773;SDS011;370;48.810;9.150;2023-08-01T10:17:18;0.77;;;0.67;;
773;SDS011;370;48.810;9.150;2023-08-01T10:19:47;0.80;;;0.70;;
773;SDS011;370;48.810;9.150;2023-08-01T10:22:15;6.93;;;0.70;;
773;SDS011;370;48.810;9.150;2023-08-01T10:24:43;1.10;;;1.00;;
773;SDS011;370;48.810;9.150;2023-08-01T10:27:11;1.37;;;0.70;;
773;SDS011;370;48.810;9.150;2023-08-01T10:29:39;0.60;;;0.60;;
773;SDS011;370;48.810;9.150;2023-08-01T10:32:07;0.70;;;0.60;;
773;SDS011;370;48.810;9.150;2023-08-01T10:34:34;0.93;;;0.80;;
773;SDS011;370;48.810;9.150;2023-08-01T10:37:01;0.80;;;0.70;;
773;SDS011;370;48.810;9.150;2023-08-01T10:39:28;0.90;;;0.80;;
773;SDS011;370;48.810;9.150;2023-08-01T10:41:58;0.80;;;0.70;;
773;SDS011;370;48.810;9.150;2023-08-01T10:44:26;0.90;;;0.80;;
773;SDS011;370;48.810;9.150;2023-08-01T10:46:56;1.00;;;0.90;;
773;SDS011;370;48.810;9.150;2023-08-01T10:49:34;1.30;;;1.07;;
773;SDS011;370;48.810;9.150;2023-08-01T10:52:02;1.27;;;0.83;;
773;SDS011;370;48.810;9.150;2023-08-01T10:54:29;3.60;;;1.07;;
773;SDS011;370;48.810;9.150;2023-08-01T10:56:57;2.03;;;1.17;;
773;SDS011;370;48.810;9.150;2023-08-01T10:59:24;1.03;;;0.93;;
773;SDS011;370;48.810;9.150;2023-08-01T11:01:52;1.47;;;1.00;;
773;SDS011;370;48.810;9.150;2023-08-01T11:04:20;1.00;;;0.90;;
773;SDS011;370;48.810;9.150;2023-08-01T11:06:49;7.87;;;1.33;;
773;SDS011;370;48.810;9.150;2023-08-01T11:09:18;1.37;;;1.27;;
773;SDS011;370;48.810;9.150;2023-08-01T11:11:45;6.80;;;1.33;;
773;SDS011;370;48.810;9.150;2023-08-01T11:14:15;1.20;;;1.03;;
773;SDS011;370;48.810;9.150;2023-08-01T11:16:42;1.57;;;1.57;;
773;SDS011;370;48.810;9.150;2023-08-01T11:19:17;1.70;;;1.60;;
773;SDS011;370;48.810;9.150;2023-08-01T11:21:45;2.97;;;1.40;;
773;SDS011;370;48.810;9.150;2023-08-01T11:24:13;3.30;;;1.50;;
773;SDS011;370;48.810;9.150;2023-08-01T11:26:41;2.10;;;1.20;;
773;SDS011;370;48.810;9.150;2023-08-01T11:29:09;1.93;;;1.53;;
773;SDS011;370;48.810;9.150;2023-08-01T11:31:36;1.77;;;1.30;;
773;SDS011;370;48.810;9.150;2023-08-01T11:34:03;1.53;;;1.47;;
773;SDS011;370;48.810;9.150;2023-08-01T11:36:30;1.63;;;1.37;;
773;SDS011;370;48.810;9.150;2023-08-01T11:38:57;2.13;;;2.00;;
773;SDS011;370;48.810;9.150;2023-08-01T11:41:27;1.33;;;1.30;;
773;SDS011;370;48.810;9.150;2023-08-01T11:43:54;1.30;;;1.20;;
773;SDS011;370;48.810;9.150;2023-08-01T11:46:21;4.70;;;1.40;;
773;SDS011;370;48.810;9.150;2023-08-01T11:48:49;1.50;;;1.20;;
773;SDS011;370;48.810;9.150;2023-08-01T11:51:16;1.37;;;1.20;;
773;SDS011;370;48.810;9.150;2023-08-01T11:53:43;3.70;;;1.53;;
773;SDS011;370;48.810;9.150;2023-08-01T11:56:19;1.50;;;1.37;;
773;SDS011;370;48.810;9.150;2023-08-01T11:58:48;1.10;;;1.00;;
773;SDS011;370;48.810;9.150;2023-08-01T12:01:15;1.53;;;1.37;;
773;SDS011;370;48.810;9.150;2023-08-01T12:03:42;1.10;;;1.00;;
773;SDS011;370;48.810;9.150;2023-08-01T12:06:09;1.43;;;1.33;;
773;SDS011;370;48.810;9.150;2023-08-01T12:08:38;4.57;;;2.50;;
773;SDS011;370;48.810;9.150;2023-08-01T12:11:05;1.20;;;1.10;;
773;SDS011;370;48.810;9.150;2023-08-01T12:13:32;1.00;;;0.90;;
773;SDS011;370;48.810;9.150;2023-08-01T12:16:00;1.30;;;1.20;;
773;SDS011;370;48.810;9.150;2023-08-01T12:18:28;1.33;;;1.17;;
773;SDS011;370;48.810;9.150;2023-08-01T12:20:55;1.23;;;1.17;;
773;SDS011;370;48.810;9.150;2023-08-01T12:23:50;5.20;;;1.30;;
773;SDS011;370;48.810;9.150;2023-08-01T12:26:18;1.30;;;1.17;;
773;SDS011;370;48.810;9.150;2023-08-01T12:28:50;1.43;;;1.20;;
773;SDS011;370;48.810;9.150;2023-08-01T12:31:22;2.40;;;1.50;;
773;SDS011;370;48.810;9.150;2023-08-01T12:33:49;2.70;;;1.83;;
773;SDS011;370;48.810;9.150;2023-08-01T12:36:24;1.20;;;1.00;;
773;SDS011;370;48.810;9.150;2023-08-01T12:38:51;1.77;;;1.60;;
773;SDS011;370;48.810;9.150;2023-08-01T12:41:18;1.20;;;1.13;;
773;SDS011;370;48.810;9.150;2023-08-01T12:43:44;1.83;;;1.40;;
773;SDS011;370;48.810;9.150;2023-08-01T12:46:11;1.50;;;1.40;;
773;SDS011;370;48.810;9.150;2023-08-01T12:48:39;1.40;;;1.30;;
773;SDS011;370;48.810;9.150;2023-08-01T12:51:06;1.20;;;1.10;;
773;SDS011;370;48.810;9.150;2023-08-01T12:53:34;1.63;;;1.40;;
773;SDS011;370;48.810;9.150;2023-08-01T12:56:00;1.40;;;1.40;;
773;SDS011;370;48.810;9.150;2023-08-01T12:58:27;1.93;;;1.40;;
773;SDS011;370;48.810;9.150;2023-08-01T13:00:55;1.30;;;1.17;;
773;SDS011;370;48.810;9.150;2023-08-01T13:03:22;2.57;;;1.50;;
773;SDS011;370;48.810;9.150;2023-08-01T13:05:50;1.47;;;1.37;;
773;SDS011;370;48.810;9.150;2023-08-01T13:08:18;2.60;;;1.50;;
773;SDS011;370;48.810;9.150;2023-08-01T13:10:45;1.53;;;1.40;;
773;SDS011;370;48.810;9.150;2023-08-01T13:13:11;2.50;;;1.00;;
773;SDS011;370;48.810;9.150;2023-08-01T13:15:38;2.00;;;1.70;;
773;SDS011;370;48.810;9.150;2023-08-01T13:18:05;3.50;;;1.20;;
773;SDS011;370;48.810;9.150;2023-08-01T13:20:32;2.27;;;1.50;;
773;SDS011;370;48.810;9.150;2023-08-01T13:23:00;1.60;;;1.57;;
773;SDS011;370;48.810;9.150;2023-08-01T13:25:30;2.60;;;1.43;;
773;SDS011;370;48.810;9.150;2023-08-01T13:27:57;2.10;;;1.50;;
773;SDS011;370;48.810;9.150;2023-08-01T13:30:24;7.60;;;2.20;;
773;SDS011;370;48.810;9.150;2023-08-01T13:32:51;2.07;;;1.40;;
773;SDS011;370;48.810;9.150;2023-08-01T13:35:17;6.77;;;2.77;;
773;SDS011;370;48.810;9.150;2023-08-01T13:37:44;5.13;;;2.00;;
773;SDS011;370;48.810;9.150;2023-08-01T13:40:13;2.40;;;1.50;;
773;SDS011;370;48.810;9.150;2023-08-01T13:42:40;1.53;;;1.27;;
773;SDS011;370;48.810;9.150;2023-08-01T13:45:08;1.73;;;1.47;;
773;SDS011;370;48.810;9.150;2023-08-01T13:47:35;1.87;;;1.77;;
773;SDS011;370;48.810;9.150;2023-08-01T13:50:02;1.80;;;1.70;;
773;SDS011;370;48.810;9.150;2023-08-01T13:52:30;3.17;;;1.67;;
773;SDS011;370;48.810;9.150;2023-08-01T13:54:56;4.77;;;1.57;;
773;SDS011;370;48.810;9.150;2023-08-01T13:57:25;1.40;;;1.30;;
773;SDS011;370;48.810;9.150;2023-08-01T13:59:52;2.40;;;1.43;;
773;SDS011;370;48.810;9.150;2023-08-01T14:02:19;1.50;;;1.40;;
773;SDS011;370;48.810;9.150;2023-08-01T14:04:45;1.30;;;1.20;;
773;SDS011;370;48.810;9.150;2023-08-01T14:07:14;1.47;;;1.37;;
773;SDS011;370;48.810;9.150;2023-08-01T14:09:41;1.20;;;1.10;;
773;SDS011;370;48.810;9.150;2023-08-01T14:12:08;2.27;;;1.27;;
773;SDS011;370;48.810;9.150;2023-08-01T14:14:36;4.43;;;1.77;;
773;SDS011;370;48.810;9.150;2023-08-01T14:17:03;1.97;;;1.20;;
773;SDS011;370;48.810;9.150;2023-08-01T14:19:30;1.60;;;1.47;;
773;SDS011;370;48.810;9.150;2023-08-01T14:21:57;3.93;;;1.60;;
773;SDS011;370;48.810;9.150;2023-08-01T14:24:24;1.57;;;1.50;;
773;SDS011;370;48.810;9.150;2023-08-01T14:26:50;1.77;;;1.30;;
773;SDS011;370;48.810;9.150;2023-08-01T14:29:17;4.80;;;1.60;;
773;SDS011;370;48.810;9.150;2023-08-01T14:31:48;2.10;;;1.60;;
773;SDS011;370;48.810;9.150;2023-08-01T14:34:16;4.30;;;1.70;;
773;SDS011;370;48.810;9.150;2023-08-01T14:36:42;1.33;;;1.30;;
773;SDS011;370;48.810;9.150;2023-08-01T14:39:09;1.20;;;1.10;;
773;SDS011;370;48.810;9.150;2023-08-01T14:41:36;1.93;;;1.30;;
773;SDS011;370;48.810;9.150;2023-08-01T14:44:03;2.17;;;1.40;;
773;SDS011;370;48.810;9.150;2023-08-01T14:46:30;2.03;;;1.50;;
773;SDS011;370;48.810;9.150;2023-08-01T14:48:58;1.97;;;1.50;;
773;SDS011;370;48.810;9.150;2023-08-01T14:51:25;3.83;;;1.30;;
773;SDS011;370;48.810;9.150;2023-08-01T14:53:52;1.87;;;1.47;;
773;SDS011;370;48.810;9.150;2023-08-01T14:56:18;3.00;;;1.30;;
773;SDS011;370;48.810;9.150;2023-08-01T14:58:45;1.77;;;1.43;;
773;SDS011;370;48.810;9.150;2023-08-01T15:01:13;2.40;;;1.70;;
773;SDS011;370;48.810;9.150;2023-08-01T15:03:40;2.00;;;1.50;;
773;SDS011;370;48.810;9.150;2023-08-01T15:06:09;2.40;;;1.23;;
773;SDS011;370;48.810;9.150;2023-08-01T15:08:37;1.40;;;1.30;;
773;SDS011;370;48.810;9.150;2023-08-01T15:11:04;1.63;;;1.40;;
773;SDS011;370;48.810;9.150;2023-08-01T15:13:31;1.50;;;1.40;;
773;SDS011;370;48.810;9.150;2023-08-01T15:15:59;2.47;;;1.20;;
773;SDS011;370;48.810;9.150;2023-08-01T15:18:26;1.57;;;1.27;;
773;SDS011;370;48.810;9.150;2023-08-01T15:20:53;1.57;;;1.20;;
773;SDS011;370;48.810;9.150;2023-08-01T15:23:22;1.40;;;1.30;;
773;SDS011;370;48.810;9.150;2023-08-01T15:25:52;8.10;;;1.53;;
773;SDS011;370;48.810;9.150;2023-08-01T15:28:19;1.63;;;1.23;;
773;SDS011;370;48.810;9.150;2023-08-01T15:30:46;1.33;;;1.27;;
773;SDS011;370;48.810;9.150;2023-08-01T15:33:13;3.50;;;1.30;;
773;SDS011;370;48.810;9.150;2023-08-01T15:35:41;1.30;;;1.20;;
773;SDS011;370;48.810;9.150;2023-08-01T15:38:09;1.30;;;1.20;;
773;SDS011;370;48.810;9.150;2023-08-01T15:40:37;2.40;;;1.30;;
773;SDS011;370;48.810;9.150;2023-08-01T15:43:04;2.13;;;1.40;;
773;SDS011;370;48.810;9.150;2023-08-01T15:45:30;2.53;;;1.30;;
773;SDS011;370;48.810;9.150;2023-08-01T15:47:57;3.63;;;1.30;;
773;SDS011;370;48.810;9.150;2023-08-01T15:50:24;1.30;;;1.23;;
773;SDS011;370;48.810;9.150;2023-08-01T15:52:51;1.30;;;1.27;;
773;SDS011;370;48.810;9.150;2023-08-01T15:55:17;3.03;;;1.50;;
773;SDS011;370;48.810;9.150;2023-08-01T16:00:58;1.20;;;1.10;;
773;SDS011;370;48.810;9.150;2023-08-01T16:03:26;1.37;;;1.30;;
773;SDS011;370;48.810;9.150;2023-08-01T16:05:53;1.20;;;1.10;;